Casper, WY

4:44 AM MDT on July 29, 2014 (GMT -0600)
Natrona County International (KCPR) Elev 5289 ft | 42.90 °N, 106.47 °W | Change Station

Current weather conditions updated 51 minutes ago

Partly Cloudy
Partly Cloudy
63 °F
Feels Like 63 °F
N
9
Wind Variable Wind from ENE

Today is forecast to be Much Cooler than yesterday. Thunderstorms.

Today
High -- | Low -- °F
--% Chance of Precip.
Yesterday
High -- | Low -- °F
Precip. -- in
5:53 AM 8:29 PM
Waxing Crescent, 6% visible
Pressure 30.04 in
Visibility 10.0 miles
Clouds Few 11000 ft
Dew Point 51 °F
Humidity 65%
Rainfall 0.00 in
Snow Depth 0 in
UV 0 out of 12
Pollen 6.00 out of 12
Air Quality Not available.
Flu Activity Not available.
METAR KCPR 290953Z AUTO 06008KT 10SM FEW110 17/11 A3027 RMK AO2 SLP173 T01720106

More Conditions Fewer Conditions

Pressure 30.04 in
Visibility 10.0 miles
Clouds Few 11000 ft
Dew Point 51 °F
Humidity 65%
Rainfall 0.00 in
Snow Depth 0 in
UV 0 out of 12
Pollen 6.00 out of 12
Air Quality Not available.
Flu Activity Not available.
METAR KCPR 290953Z AUTO 06008KT 10SM FEW110 17/11 A3027 RMK AO2 SLP173 T01720106

More Conditions Fewer Conditions

10-Day Weather Forecast

Almanac

Astronomy

Jul. 29, 2014 Rise Set
Actual Time 5:53 AM MDT 8:29 PM MDT
Civil Twilight 5:21 AM MDT 9:01 PM MDT
Nautical Twilight 4:40 AM MDT 9:42 PM MDT
Astronomical Twilight 3:54 AM MDT 10:27 PM MDT
Moon 8:37 AM MDT 9:37 PM MDT
Length of Visible Light 15h 40m
Length of Day
14h 35m
Tomorrow will be 2m 8s shorter.
Waxing Crescent, 6% of the Moon is Illuminated
Today
Waxing Crescent
Aug 3
First Quarter
Aug 10
Full
Aug 17
Last Quarter
Aug 25
New

Today's Extremes

State Highs State Lows

Community

WunderPhotos

Upload Photos

1,738,683 photos uploaded!

Nearby

Snow Depth

Station Depth Elevation
Casper Mountain 0 in 7850 ft
Reno Hill 0 in 8500 ft
Windy Peak 0 in 7900 ft
Sand Lake 0 in 10050 ft
Brooklyn Lake 0 in 10220 ft

Earthquake Activity

City Distance Mag. Time & Date
No recent earthquake activity has been reported nearby.
Minimum magnitude displayed is 2.5.

Coastal Water Temperatures

Place Temperature
No Stations Reporting

Nearby Weather Stations

Station Location Temp. Dew Point Humidity Wind Precip. Elev Updated Type
HADS NORTH PLATTE RIVER AT CASPER WY, Casper, WY 65 °F - - North  at  - 0.00 in / hr 5100 ft 3:30 AM MDT MADIS
North of Casper, WY, Bar Nunn, WY 61.7 °F 51 °F 69% NNE  at  2.0 mph 0.00 in / hr 5276 ft 4:39 AM MDT Normal
North of Rolling Hills WY, Glenrock, WY 59.9 °F 51 °F 72% NE  at  10.0 mph 0.00 in / hr 5421 ft 4:43 AM MDT Rapid Fire
RAWS CASPER MOUNTAIN WY, Casper, WY 63 °F 50 °F 63% NNW  at  2 mph 0.00 in / hr 7740 ft 3:52 AM MDT MADIS

Show More Stations Show Fewer Stations